sensor_id;sensor_type;location;lat;lon;timestamp;pressure;altitude;pressure_sealevel;temperature;humidity
9893;BME280;4985;49.092;8.542;2022-11-15T00:01:08;99065.78;;;14.77;53.89
9893;BME280;4985;49.092;8.542;2022-11-15T00:03:35;99058.84;;;14.76;53.90
9893;BME280;4985;49.092;8.542;2022-11-15T00:06:02;99065.78;;;14.77;53.89
9893;BME280;4985;49.092;8.542;2022-11-15T00:08:30;99061.28;;;14.78;53.87
9893;BME280;4985;49.092;8.542;2022-11-15T00:10:59;99060.47;;;14.77;53.85
9893;BME280;4985;49.092;8.542;2022-11-15T00:13:26;99061.28;;;14.78;53.87
9893;BME280;4985;49.092;8.542;2022-11-15T00:15:56;99061.91;;;14.80;53.87
9893;BME280;4985;49.092;8.542;2022-11-15T00:18:23;99061.09;;;14.79;53.86
9893;BME280;4985;49.092;8.542;2022-11-15T00:20:50;99062.94;;;14.79;53.84
9893;BME280;4985;49.092;8.542;2022-11-15T00:23:16;99054.38;;;14.77;53.86
9893;BME280;4985;49.092;8.542;2022-11-15T00:25:43;99046.41;;;14.77;53.87
9893;BME280;4985;49.092;8.542;2022-11-15T00:28:11;99053.97;;;14.80;53.85
9893;BME280;4985;49.092;8.542;2022-11-15T00:30:38;99052.31;;;14.79;53.86
9893;BME280;4985;49.092;8.542;2022-11-15T00:33:05;99049.88;;;14.77;53.86
9893;BME280;4985;49.092;8.542;2022-11-15T00:35:33;99045.41;;;14.78;53.88
9893;BME280;4985;49.092;8.542;2022-11-15T00:38:02;99052.31;;;14.79;53.87
9893;BME280;4985;49.092;8.542;2022-11-15T00:40:29;99046.00;;;14.80;53.84
9893;BME280;4985;49.092;8.542;2022-11-15T00:42:57;99045.19;;;14.79;53.83
9893;BME280;4985;49.092;8.542;2022-11-15T00:45:25;99043.38;;;14.80;53.84
9893;BME280;4985;49.092;8.542;2022-11-15T00:47:52;99036.44;;;14.79;53.85
9893;BME280;4985;49.092;8.542;2022-11-15T00:50:19;99032.16;;;14.78;53.87
9893;BME280;4985;49.092;8.542;2022-11-15T00:52:46;99036.44;;;14.79;53.87
9893;BME280;4985;49.092;8.542;2022-11-15T00:55:14;99036.44;;;14.79;53.86
9893;BME280;4985;49.092;8.542;2022-11-15T00:57:41;99036.44;;;14.79;53.86
9893;BME280;4985;49.092;8.542;2022-11-15T01:00:08;99026.84;;;14.78;53.86
9893;BME280;4985;49.092;8.542;2022-11-15T01:02:37;99033.16;;;14.77;53.86
9893;BME280;4985;49.092;8.542;2022-11-15T01:05:04;99030.31;;;14.78;53.87
9893;BME280;4985;49.092;8.542;2022-11-15T01:07:31;99023.19;;;14.79;53.86
9893;BME280;4985;49.092;8.542;2022-11-15T01:09:57;99030.12;;;14.80;53.84
9893;BME280;4985;49.092;8.542;2022-11-15T01:12:24;99025.84;;;14.79;53.85
9893;BME280;4985;49.092;8.542;2022-11-15T01:14:51;99024.81;;;14.80;53.83
9893;BME280;4985;49.092;8.542;2022-11-15T01:17:17;99021.34;;;14.79;53.83
9893;BME280;4985;49.092;8.542;2022-11-15T01:19:45;99020.53;;;14.79;53.83
9893;BME280;4985;49.092;8.542;2022-11-15T01:22:12;99015.22;;;14.79;53.83
9893;BME280;4985;49.092;8.542;2022-11-15T01:24:38;99027.47;;;14.80;53.82
9893;BME280;4985;49.092;8.542;2022-11-15T01:27:05;99015.22;;;14.79;53.84
9893;BME280;4985;49.092;8.542;2022-11-15T01:29:32;99013.41;;;14.79;53.85
9893;BME280;4985;49.092;8.542;2022-11-15T01:31:58;99016.03;;;14.79;53.85
9893;BME280;4985;49.092;8.542;2022-11-15T01:34:25;99016.88;;;14.80;53.83
9893;BME280;4985;49.092;8.542;2022-11-15T01:36:53;99009.94;;;14.79;53.83
9893;BME280;4985;49.092;8.542;2022-11-15T01:39:20;99005.44;;;14.79;53.82
9893;BME280;4985;49.092;8.542;2022-11-15T01:41:46;99000.16;;;14.79;53.83
9893;BME280;4985;49.092;8.542;2022-11-15T01:44:39;99000.97;;;14.80;53.81
9893;BME280;4985;49.092;8.542;2022-11-15T01:47:10;98994.66;;;14.81;53.77
9893;BME280;4985;49.092;8.542;2022-11-15T01:49:40;98995.66;;;14.80;53.79
9893;BME280;4985;49.092;8.542;2022-11-15T01:52:13;98989.34;;;14.81;53.76
9893;BME280;4985;49.092;8.542;2022-11-15T01:54:41;98987.72;;;14.80;53.78
9893;BME280;4985;49.092;8.542;2022-11-15T01:57:11;98986.91;;;14.79;53.81
9893;BME280;4985;49.092;8.542;2022-11-15T01:59:41;98987.72;;;14.80;53.83
9893;BME280;4985;49.092;8.542;2022-11-15T02:02:08;98985.88;;;14.80;53.84
9893;BME280;4985;49.092;8.542;2022-11-15T02:04:37;98978.13;;;14.79;53.82
9893;BME280;4985;49.092;8.542;2022-11-15T02:07:08;98986.69;;;14.81;53.78
9893;BME280;4985;49.092;8.542;2022-11-15T02:09:38;98985.06;;;14.80;53.79
9893;BME280;4985;49.092;8.542;2022-11-15T02:12:06;98984.25;;;14.79;53.80
9893;BME280;4985;49.092;8.542;2022-11-15T02:14:35;98990.38;;;14.80;53.81
9893;BME280;4985;49.092;8.542;2022-11-15T02:17:12;98983.44;;;14.79;53.81
9893;BME280;4985;49.092;8.542;2022-11-15T02:20:11;98984.25;;;14.79;53.81
9893;BME280;4985;49.092;8.542;2022-11-15T02:22:59;98981.59;;;14.79;53.81
9893;BME280;4985;49.092;8.542;2022-11-15T02:25:38;98981.59;;;14.79;53.79
9893;BME280;4985;49.092;8.542;2022-11-15T02:28:20;98973.44;;;14.81;53.79
9893;BME280;4985;49.092;8.542;2022-11-15T02:30:54;98969.16;;;14.80;53.79
9893;BME280;4985;49.092;8.542;2022-11-15T02:33:30;98969.16;;;14.80;53.81
9893;BME280;4985;49.092;8.542;2022-11-15T02:36:01;98977.13;;;14.80;53.80
9893;BME280;4985;49.092;8.542;2022-11-15T02:38:32;98962.84;;;14.81;53.79
9893;BME280;4985;49.092;8.542;2022-11-15T02:41:05;98965.69;;;14.79;53.77
9893;BME280;4985;49.092;8.542;2022-11-15T02:43:37;98950.63;;;14.80;53.80
9893;BME280;4985;49.092;8.542;2022-11-15T02:46:27;98954.09;;;14.80;53.78
9893;BME280;4985;49.092;8.542;2022-11-15T02:49:16;98939.00;;;14.81;53.76
9893;BME280;4985;49.092;8.542;2022-11-15T02:51:44;98922.28;;;14.80;53.77
9893;BME280;4985;49.092;8.542;2022-11-15T02:54:13;98924.13;;;14.80;53.78
9893;BME280;4985;49.092;8.542;2022-11-15T02:56:40;98918.81;;;14.80;53.76
9893;BME280;4985;49.092;8.542;2022-11-15T02:59:28;98929.22;;;14.81;53.74
9893;BME280;4985;49.092;8.542;2022-11-15T03:02:11;98930.25;;;14.80;53.75
9893;BME280;4985;49.092;8.542;2022-11-15T03:04:44;98931.06;;;14.81;53.73
9893;BME280;4985;49.092;8.542;2022-11-15T03:07:17;98931.88;;;14.81;53.74
9893;BME280;4985;49.092;8.542;2022-11-15T03:09:52;98923.91;;;14.81;53.74
9893;BME280;4985;49.092;8.542;2022-11-15T03:12:26;98932.06;;;14.80;53.75
9893;BME280;4985;49.092;8.542;2022-11-15T03:14:57;98927.59;;;14.80;53.75
9893;BME280;4985;49.092;8.542;2022-11-15T03:17:29;98931.06;;;14.81;53.75
9893;BME280;4985;49.092;8.542;2022-11-15T03:19:58;98924.94;;;14.80;53.75
9893;BME280;4985;49.092;8.542;2022-11-15T03:22:28;98916.16;;;14.80;53.78
9893;BME280;4985;49.092;8.542;2022-11-15T03:24:59;98903.75;;;14.80;53.76
9893;BME280;4985;49.092;8.542;2022-11-15T03:27:36;98910.06;;;14.79;53.77
9893;BME280;4985;49.092;8.542;2022-11-15T03:30:07;98911.91;;;14.79;53.77
9893;BME280;4985;49.092;8.542;2022-11-15T03:32:38;98918.81;;;14.80;53.78
9893;BME280;4985;49.092;8.542;2022-11-15T03:35:09;98923.09;;;14.81;53.75
9893;BME280;4985;49.092;8.542;2022-11-15T03:37:41;98905.56;;;14.80;53.75
9893;BME280;4985;49.092;8.542;2022-11-15T03:40:10;98917.00;;;14.80;53.77
9893;BME280;4985;49.092;8.542;2022-11-15T03:42:42;98920.66;;;14.79;53.78
9893;BME280;4985;49.092;8.542;2022-11-15T03:45:13;98905.56;;;14.80;53.79
9893;BME280;4985;49.092;8.542;2022-11-15T03:47:45;98902.09;;;14.79;53.81
9893;BME280;4985;49.092;8.542;2022-11-15T03:50:18;98908.22;;;14.80;53.79
9893;BME280;4985;49.092;8.542;2022-11-15T03:52:46;98896.81;;;14.73;53.78
9893;BME280;4985;49.092;8.542;2022-11-15T03:55:15;98893.34;;;14.79;53.80
9893;BME280;4985;49.092;8.542;2022-11-15T03:57:42;98896.19;;;14.77;53.81
9893;BME280;4985;49.092;8.542;2022-11-15T04:00:10;98912.91;;;14.78;53.81
9893;BME280;4985;49.092;8.542;2022-11-15T04:02:37;98886.63;;;14.76;53.83
9893;BME280;4985;49.092;8.542;2022-11-15T04:05:06;98894.38;;;14.78;53.82
9893;BME280;4985;49.092;8.542;2022-11-15T04:07:32;98898.66;;;14.79;53.81
9893;BME280;4985;49.092;8.542;2022-11-15T04:09:59;98890.09;;;14.77;53.82
9893;BME280;4985;49.092;8.542;2022-11-15T04:12:40;98887.03;;;14.80;53.81
9893;BME280;4985;49.092;8.542;2022-11-15T04:15:10;98889.69;;;14.80;53.78
9893;BME280;4985;49.092;8.542;2022-11-15T04:17:39;98884.38;;;14.80;53.78
9893;BME280;4985;49.092;8.542;2022-11-15T04:20:10;98889.06;;;14.78;53.78
9893;BME280;4985;49.092;8.542;2022-11-15T04:22:56;98893.34;;;14.79;53.81
9893;BME280;4985;49.092;8.542;2022-11-15T04:25:40;98906.81;;;14.77;53.83
9893;BME280;4985;49.092;8.542;2022-11-15T04:28:07;98899.47;;;14.79;53.80
9893;BME280;4985;49.092;8.542;2022-11-15T04:30:34;98896.81;;;14.79;53.78
9893;BME280;4985;49.092;8.542;2022-11-15T04:33:01;98893.34;;;14.79;53.79
9893;BME280;4985;49.092;8.542;2022-11-15T04:35:29;98891.31;;;14.81;53.77
9893;BME280;4985;49.092;8.542;2022-11-15T04:37:57;98880.09;;;14.79;53.78
9893;BME280;4985;49.092;8.542;2022-11-15T04:40:22;98880.09;;;14.79;53.78
9893;BME280;4985;49.092;8.542;2022-11-15T04:42:49;98880.31;;;14.77;53.81
9893;BME280;4985;49.092;8.542;2022-11-15T04:45:16;98881.72;;;14.80;53.80
9893;BME280;4985;49.092;8.542;2022-11-15T04:47:43;98872.97;;;14.79;53.79
9893;BME280;4985;49.092;8.542;2022-11-15T04:50:10;98869.69;;;14.77;53.80
9893;BME280;4985;49.092;8.542;2022-11-15T04:52:40;98872.16;;;14.79;53.80
9893;BME280;4985;49.092;8.542;2022-11-15T04:55:07;98868.06;;;14.76;53.81
9893;BME280;4985;49.092;8.542;2022-11-15T04:57:34;98870.53;;;14.78;53.83
9893;BME280;4985;49.092;8.542;2022-11-15T05:00:01;98860.94;;;14.77;53.83
9893;BME280;4985;49.092;8.542;2022-11-15T05:02:28;98861.75;;;14.77;53.82
9893;BME280;4985;49.092;8.542;2022-11-15T05:05:15;98851.97;;;14.78;53.80
9893;BME280;4985;49.092;8.542;2022-11-15T05:07:42;98855.44;;;14.78;53.81
9893;BME280;4985;49.092;8.542;2022-11-15T05:10:09;98858.69;;;14.80;53.77
9893;BME280;4985;49.092;8.542;2022-11-15T05:12:36;98841.97;;;14.80;53.76
9893;BME280;4985;49.092;8.542;2022-11-15T05:15:03;98836.69;;;14.80;53.78
9893;BME280;4985;49.092;8.542;2022-11-15T05:17:30;98835.06;;;14.79;53.79
9893;BME280;4985;49.092;8.542;2022-11-15T05:19:57;98847.50;;;14.78;53.80
9893;BME280;4985;49.092;8.542;2022-11-15T05:22:24;98845.84;;;14.77;53.81
9893;BME280;4985;49.092;8.542;2022-11-15T05:24:52;98842.37;;;14.70;53.83
9893;BME280;4985;49.092;8.542;2022-11-15T05:27:18;98848.72;;;14.76;53.85
9893;BME280;4985;49.092;8.542;2022-11-15T05:29:45;98852.19;;;14.76;53.87
9893;BME280;4985;49.092;8.542;2022-11-15T05:32:12;98852.19;;;14.76;53.87
9893;BME280;4985;49.092;8.542;2022-11-15T05:34:39;98855.84;;;14.75;53.89
9893;BME280;4985;49.092;8.542;2022-11-15T05:37:06;98856.66;;;14.76;53.85
9893;BME280;4985;49.092;8.542;2022-11-15T05:39:32;98863.59;;;14.77;53.85
9893;BME280;4985;49.092;8.542;2022-11-15T05:42:04;98858.28;;;14.77;53.85
9893;BME280;4985;49.092;8.542;2022-11-15T05:44:33;98853.81;;;14.77;53.83
9893;BME280;4985;49.092;8.542;2022-11-15T05:47:02;98850.94;;;14.79;53.82
9893;BME280;4985;49.092;8.542;2022-11-15T05:49:33;98850.13;;;14.78;53.81
9893;BME280;4985;49.092;8.542;2022-11-15T05:52:03;98841.16;;;14.79;53.79
9893;BME280;4985;49.092;8.542;2022-11-15T05:54:31;98839.34;;;14.80;53.78
9893;BME280;4985;49.092;8.542;2022-11-15T05:57:00;98838.31;;;14.74;53.75
9893;BME280;4985;49.092;8.542;2022-11-15T05:59:28;98839.34;;;14.80;53.75
9893;BME280;4985;49.092;8.542;2022-11-15T06:01:55;98841.78;;;14.81;53.72
9893;BME280;4985;49.092;8.542;2022-11-15T06:04:22;98848.91;;;14.81;53.72
9893;BME280;4985;49.092;8.542;2022-11-15T06:06:49;98854.41;;;14.79;53.77
9893;BME280;4985;49.092;8.542;2022-11-15T06:09:15;98860.53;;;14.80;53.80
9893;BME280;4985;49.092;8.542;2022-11-15T06:11:42;98861.56;;;14.79;53.80
9893;BME280;4985;49.092;8.542;2022-11-15T06:14:10;98853.59;;;14.79;53.80
9893;BME280;4985;49.092;8.542;2022-11-15T06:16:37;98850.94;;;14.79;53.79
9893;BME280;4985;49.092;8.542;2022-11-15T06:19:05;98836.06;;;14.78;53.79
9893;BME280;4985;49.092;8.542;2022-11-15T06:21:32;98827.31;;;14.77;53.80
9893;BME280;4985;49.092;8.542;2022-11-15T06:23:59;98846.66;;;14.78;53.79
9893;BME280;4985;49.092;8.542;2022-11-15T06:26:25;98856.25;;;14.79;53.78
9893;BME280;4985;49.092;8.542;2022-11-15T06:28:52;98849.94;;;14.80;53.77
9893;BME280;4985;49.092;8.542;2022-11-15T06:31:20;98858.69;;;14.80;53.77
9893;BME280;4985;49.092;8.542;2022-11-15T06:33:47;98849.94;;;14.80;53.77
9893;BME280;4985;49.092;8.542;2022-11-15T06:36:14;98838.31;;;14.81;53.75
9893;BME280;4985;49.092;8.542;2022-11-15T06:38:42;98845.25;;;14.82;53.71
9893;BME280;4985;49.092;8.542;2022-11-15T06:41:10;98852.16;;;14.83;53.70
9893;BME280;4985;49.092;8.542;2022-11-15T06:43:38;98857.47;;;14.83;53.67
9893;BME280;4985;49.092;8.542;2022-11-15T06:46:07;98863.59;;;14.83;53.67
9893;BME280;4985;49.092;8.542;2022-11-15T06:48:36;98860.31;;;14.81;53.65
9893;BME280;4985;49.092;8.542;2022-11-15T06:51:04;98865.25;;;14.84;53.63
9893;BME280;4985;49.092;8.542;2022-11-15T06:53:31;98870.53;;;14.84;53.65
9893;BME280;4985;49.092;8.542;2022-11-15T06:55:58;98855.03;;;14.75;53.66
9893;BME280;4985;49.092;8.542;2022-11-15T06:58:28;98861.97;;;14.82;53.68
9893;BME280;4985;49.092;8.542;2022-11-15T07:00:58;98874.38;;;14.82;53.69
9893;BME280;4985;49.092;8.542;2022-11-15T07:03:25;98863.78;;;14.82;53.69
9893;BME280;4985;49.092;8.542;2022-11-15T07:05:54;98854.81;;;14.83;53.69
9893;BME280;4985;49.092;8.542;2022-11-15T07:08:27;98854.00;;;14.76;53.66
9893;BME280;4985;49.092;8.542;2022-11-15T07:10:54;98871.53;;;14.83;53.65
9893;BME280;4985;49.092;8.542;2022-11-15T07:13:24;98870.72;;;14.83;53.67
9893;BME280;4985;49.092;8.542;2022-11-15T07:15:50;98873.37;;;14.83;53.68
9893;BME280;4985;49.092;8.542;2022-11-15T07:18:17;98870.09;;;14.81;53.72
9893;BME280;4985;49.092;8.542;2022-11-15T07:20:44;98877.25;;;14.80;53.73
9893;BME280;4985;49.092;8.542;2022-11-15T07:23:12;98876.44;;;14.80;53.75
9893;BME280;4985;49.092;8.542;2022-11-15T07:25:38;98881.72;;;14.80;53.76
9893;BME280;4985;49.092;8.542;2022-11-15T07:28:05;98873.78;;;14.80;53.78
9893;BME280;4985;49.092;8.542;2022-11-15T07:30:32;98871.94;;;14.80;53.77
9893;BME280;4985;49.092;8.542;2022-11-15T07:33:00;98869.28;;;14.80;53.76
9893;BME280;4985;49.092;8.542;2022-11-15T07:35:28;98868.47;;;14.80;53.77
9893;BME280;4985;49.092;8.542;2022-11-15T07:37:56;98865.00;;;14.79;53.78
9893;BME280;4985;49.092;8.542;2022-11-15T07:40:25;98865.22;;;14.78;53.79
9893;BME280;4985;49.092;8.542;2022-11-15T07:42:51;98855.63;;;14.77;53.83
9893;BME280;4985;49.092;8.542;2022-11-15T07:45:22;98860.94;;;14.77;53.84
9893;BME280;4985;49.092;8.542;2022-11-15T07:47:51;98864.41;;;14.77;53.84
9893;BME280;4985;49.092;8.542;2022-11-15T07:50:18;98866.84;;;14.79;53.84
9893;BME280;4985;49.092;8.542;2022-11-15T07:52:44;98855.63;;;14.77;53.86
9893;BME280;4985;49.092;8.542;2022-11-15T07:55:11;98860.94;;;14.77;53.86
9893;BME280;4985;49.092;8.542;2022-11-15T07:57:39;98859.91;;;14.78;53.86
9893;BME280;4985;49.092;8.542;2022-11-15T08:00:07;98871.53;;;14.77;53.87
9893;BME280;4985;49.092;8.542;2022-11-15T08:02:33;98863.59;;;14.77;53.86
9893;BME280;4985;49.092;8.542;2022-11-15T08:05:00;98862.56;;;14.78;53.87
9893;BME280;4985;49.092;8.542;2022-11-15T08:07:28;98857.06;;;14.79;53.84
9893;BME280;4985;49.092;8.542;2022-11-15T08:09:56;98854.41;;;14.79;53.83
9893;BME280;4985;49.092;8.542;2022-11-15T08:12:23;98852.56;;;14.80;53.81
9893;BME280;4985;49.092;8.542;2022-11-15T08:14:51;98861.56;;;14.79;53.83
9893;BME280;4985;49.092;8.542;2022-11-15T08:17:17;98856.25;;;14.79;53.83
9893;BME280;4985;49.092;8.542;2022-11-15T08:19:45;98850.94;;;14.79;53.85
9893;BME280;4985;49.092;8.542;2022-11-15T08:22:12;98851.97;;;14.78;53.87
9893;BME280;4985;49.092;8.542;2022-11-15T08:24:38;98862.38;;;14.79;53.84
9893;BME280;4985;49.092;8.542;2022-11-15T08:27:05;98857.06;;;14.79;53.86
9893;BME280;4985;49.092;8.542;2022-11-15T08:29:41;98856.25;;;14.79;53.87
9893;BME280;4985;49.092;8.542;2022-11-15T08:32:09;98857.87;;;14.80;53.87
9893;BME280;4985;49.092;8.542;2022-11-15T08:34:36;98848.09;;;14.80;53.94
9893;BME280;4985;49.092;8.542;2022-11-15T08:37:03;98856.84;;;14.81;54.03
9893;BME280;4985;49.092;8.542;2022-11-15T08:39:30;98851.56;;;14.81;53.97
9893;BME280;4985;49.092;8.542;2022-11-15T08:41:57;98837.50;;;14.80;53.95
9893;BME280;4985;49.092;8.542;2022-11-15T08:44:24;98833.22;;;14.79;53.97
9893;BME280;4985;49.092;8.542;2022-11-15T08:46:50;98834.03;;;14.80;53.97
9893;BME280;4985;49.092;8.542;2022-11-15T08:49:18;98837.50;;;14.80;53.97
9893;BME280;4985;49.092;8.542;2022-11-15T08:51:45;98822.41;;;14.81;53.95
9893;BME280;4985;49.092;8.542;2022-11-15T08:54:14;98826.09;;;14.80;53.97
9893;BME280;4985;49.092;8.542;2022-11-15T08:56:42;98827.91;;;14.79;53.98
9893;BME280;4985;49.092;8.542;2022-11-15T08:59:09;98823.22;;;14.81;53.96
9893;BME280;4985;49.092;8.542;2022-11-15T09:01:36;98824.25;;;14.80;53.96
9893;BME280;4985;49.092;8.542;2022-11-15T09:04:03;98824.25;;;14.80;53.97
9893;BME280;4985;49.092;8.542;2022-11-15T09:06:31;98822.41;;;14.81;53.96
9893;BME280;4985;49.092;8.542;2022-11-15T09:09:00;98824.03;;;14.82;53.96
9893;BME280;4985;49.092;8.542;2022-11-15T09:11:26;98814.69;;;14.73;53.98
9893;BME280;4985;49.092;8.542;2022-11-15T09:13:53;98816.31;;;14.80;53.98
9893;BME280;4985;49.092;8.542;2022-11-15T09:16:20;98813.66;;;14.80;54.00
9893;BME280;4985;49.092;8.542;2022-11-15T09:18:48;98811.00;;;14.80;53.99
9893;BME280;4985;49.092;8.542;2022-11-15T09:21:15;98811.81;;;14.81;54.00
9893;BME280;4985;49.092;8.542;2022-11-15T09:23:43;98811.81;;;14.81;53.99
9893;BME280;4985;49.092;8.542;2022-11-15T09:26:10;98806.50;;;14.81;53.99
9893;BME280;4985;49.092;8.542;2022-11-15T09:28:36;98795.94;;;14.74;53.99
9893;BME280;4985;49.092;8.542;2022-11-15T09:31:05;98800.00;;;14.83;53.98
9893;BME280;4985;49.092;8.542;2022-11-15T09:33:32;98803.66;;;14.82;53.97
9893;BME280;4985;49.092;8.542;2022-11-15T09:36:03;98799.19;;;14.83;53.97
9893;BME280;4985;49.092;8.542;2022-11-15T09:38:30;98800.84;;;14.84;53.96
9893;BME280;4985;49.092;8.542;2022-11-15T09:41:21;98793.88;;;14.83;53.97
9893;BME280;4985;49.092;8.542;2022-11-15T09:44:00;98785.12;;;14.82;53.97
9893;BME280;4985;49.092;8.542;2022-11-15T09:46:37;98788.56;;;14.83;53.98
9893;BME280;4985;49.092;8.542;2022-11-15T09:49:09;98793.88;;;14.83;54.00
9893;BME280;4985;49.092;8.542;2022-11-15T09:51:38;98791.22;;;14.83;54.01
9893;BME280;4985;49.092;8.542;2022-11-15T09:54:20;98787.75;;;14.82;54.00
9893;BME280;4985;49.092;8.542;2022-11-15T09:56:50;98791.22;;;14.83;54.01
9893;BME280;4985;49.092;8.542;2022-11-15T09:59:35;98792.88;;;14.84;54.01
9893;BME280;4985;49.092;8.542;2022-11-15T10:02:14;98790.25;;;14.84;54.02
9893;BME280;4985;49.092;8.542;2022-11-15T10:04:43;98790.25;;;14.84;54.01
9893;BME280;4985;49.092;8.542;2022-11-15T10:07:15;98784.09;;;14.83;54.03
9893;BME280;4985;49.092;8.542;2022-11-15T10:09:47;98777.97;;;14.83;54.04
9893;BME280;4985;49.092;8.542;2022-11-15T10:12:18;98779.63;;;14.84;54.04
9893;BME280;4985;49.092;8.542;2022-11-15T10:14:45;98779.81;;;14.82;54.05
9893;BME280;4985;49.092;8.542;2022-11-15T10:17:40;98776.16;;;14.83;54.05
9893;BME280;4985;49.092;8.542;2022-11-15T10:20:18;98769.03;;;14.84;54.04
9893;BME280;4985;49.092;8.542;2022-11-15T10:22:48;98772.69;;;14.83;54.05
9893;BME280;4985;49.092;8.542;2022-11-15T10:25:19;98770.66;;;14.85;54.06
9893;BME280;4985;49.092;8.542;2022-11-15T10:27:53;98769.03;;;14.84;54.05
9893;BME280;4985;49.092;8.542;2022-11-15T10:30:21;98771.69;;;14.84;54.07
9893;BME280;4985;49.092;8.542;2022-11-15T10:32:48;98768.03;;;14.85;54.08
9893;BME280;4985;49.092;8.542;2022-11-15T10:35:18;98763.75;;;14.84;54.09
9893;BME280;4985;49.092;8.542;2022-11-15T10:37:45;98751.28;;;14.78;54.08
9893;BME280;4985;49.092;8.542;2022-11-15T10:40:18;98761.91;;;14.84;54.08
9893;BME280;4985;49.092;8.542;2022-11-15T10:42:45;98753.94;;;14.84;54.08
9893;BME280;4985;49.092;8.542;2022-11-15T10:45:25;98753.13;;;14.84;54.09
9893;BME280;4985;49.092;8.542;2022-11-15T10:47:52;98752.94;;;14.85;54.08
9893;BME280;4985;49.092;8.542;2022-11-15T10:50:28;98755.59;;;14.85;54.10
9893;BME280;4985;49.092;8.542;2022-11-15T10:52:55;98757.22;;;14.87;54.07
9893;BME280;4985;49.092;8.542;2022-11-15T10:55:24;98751.09;;;14.86;54.07
9893;BME280;4985;49.092;8.542;2022-11-15T10:57:54;98734.19;;;14.87;54.08
9893;BME280;4985;49.092;8.542;2022-11-15T11:00:32;98739.47;;;14.87;54.06
9893;BME280;4985;49.092;8.542;2022-11-15T11:03:00;98750.06;;;14.87;54.07
9893;BME280;4985;49.092;8.542;2022-11-15T11:05:30;98748.25;;;14.88;54.08
9893;BME280;4985;49.092;8.542;2022-11-15T11:08:00;98748.25;;;14.88;54.07
9893;BME280;4985;49.092;8.542;2022-11-15T11:10:27;98736.81;;;14.87;54.07
9893;BME280;4985;49.092;8.542;2022-11-15T11:12:54;98733.16;;;14.88;54.05
9893;BME280;4985;49.092;8.542;2022-11-15T11:15:24;98727.84;;;14.88;54.06
9893;BME280;4985;49.092;8.542;2022-11-15T11:18:01;98713.78;;;14.88;54.07
9893;BME280;4985;49.092;8.542;2022-11-15T11:20:36;98712.75;;;14.89;54.08
9893;BME280;4985;49.092;8.542;2022-11-15T11:23:19;98707.47;;;14.89;54.08
9893;BME280;4985;49.092;8.542;2022-11-15T11:25:53;98702.97;;;14.89;54.06
9893;BME280;4985;49.092;8.542;2022-11-15T11:28:39;98709.91;;;14.90;54.07
9893;BME280;4985;49.092;8.542;2022-11-15T11:31:20;98705.63;;;14.89;54.09
9893;BME280;4985;49.092;8.542;2022-11-15T11:34:00;98689.53;;;14.91;54.08
9893;BME280;4985;49.092;8.542;2022-11-15T11:36:38;98688.72;;;14.90;54.09
9893;BME280;4985;49.092;8.542;2022-11-15T11:39:18;98681.38;;;14.92;54.07
9893;BME280;4985;49.092;8.542;2022-11-15T11:41:53;98680.34;;;14.93;54.05
9893;BME280;4985;49.092;8.542;2022-11-15T11:44:33;98683.00;;;14.93;54.05
9893;BME280;4985;49.092;8.542;2022-11-15T11:47:09;98677.69;;;14.93;54.07
9893;BME280;4985;49.092;8.542;2022-11-15T11:49:41;98677.69;;;14.93;54.06
9893;BME280;4985;49.092;8.542;2022-11-15T11:52:13;98661.81;;;14.87;54.08
9893;BME280;4985;49.092;8.542;2022-11-15T11:54:49;98665.47;;;14.92;54.07
9893;BME280;4985;49.092;8.542;2022-11-15T11:57:28;98669.75;;;14.93;54.06
9893;BME280;4985;49.092;8.542;2022-11-15T12:00:02;98654.69;;;14.87;54.05
9893;BME280;4985;49.092;8.542;2022-11-15T12:02:32;98658.13;;;14.94;54.04
9893;BME280;4985;49.092;8.542;2022-11-15T12:05:07;98654.47;;;14.95;54.04
9893;BME280;4985;49.092;8.542;2022-11-15T12:07:37;98650.97;;;14.95;54.04
9893;BME280;4985;49.092;8.542;2022-11-15T12:10:16;98650.97;;;14.95;54.04
9893;BME280;4985;49.092;8.542;2022-11-15T12:12:51;98651.63;;;14.97;54.03
9893;BME280;4985;49.092;8.542;2022-11-15T12:15:22;98642.84;;;14.96;54.02
9893;BME280;4985;49.092;8.542;2022-11-15T12:17:50;98646.31;;;14.97;54.01
9893;BME280;4985;49.092;8.542;2022-11-15T12:20:21;98640.19;;;14.96;54.01
9893;BME280;4985;49.092;8.542;2022-11-15T12:22:53;98630.41;;;14.97;54.01
9893;BME280;4985;49.092;8.542;2022-11-15T12:25:25;98628.78;;;14.96;54.01
9893;BME280;4985;49.092;8.542;2022-11-15T12:27:57;98624.28;;;14.96;54.00
9893;BME280;4985;49.092;8.542;2022-11-15T12:30:29;98601.09;;;14.85;54.00
9893;BME280;4985;49.092;8.542;2022-11-15T12:33:03;98616.94;;;14.98;54.00
9893;BME280;4985;49.092;8.542;2022-11-15T12:35:35;98614.28;;;14.98;54.00
9893;BME280;4985;49.092;8.542;2022-11-15T12:38:03;98611.66;;;14.98;53.99
9893;BME280;4985;49.092;8.542;2022-11-15T12:40:33;98608.19;;;14.98;53.98
9893;BME280;4985;49.092;8.542;2022-11-15T12:43:03;98609.00;;;14.98;53.99
9893;BME280;4985;49.092;8.542;2022-11-15T12:45:31;98600.03;;;14.99;53.98
9893;BME280;4985;49.092;8.542;2022-11-15T12:51:04;98593.91;;;14.99;54.01
9893;BME280;4985;49.092;8.542;2022-11-15T12:53:32;98586.78;;;14.99;54.01
9893;BME280;4985;49.092;8.542;2022-11-15T12:56:18;98576.19;;;14.93;54.00
9893;BME280;4985;49.092;8.542;2022-11-15T12:58:48;98580.44;;;15.00;54.00
9893;BME280;4985;49.092;8.542;2022-11-15T13:01:54;98575.16;;;15.00;54.00
9893;BME280;4985;49.092;8.542;2022-11-15T13:04:24;98568.81;;;15.01;54.00
9893;BME280;4985;49.092;8.542;2022-11-15T13:06:54;98568.00;;;15.01;53.99
9893;BME280;4985;49.092;8.542;2022-11-15T13:09:55;98563.50;;;15.01;54.00
9893;BME280;4985;49.092;8.542;2022-11-15T13:12:51;98568.81;;;15.01;54.02
9893;BME280;4985;49.092;8.542;2022-11-15T13:15:45;98555.34;;;15.03;54.00
9893;BME280;4985;49.092;8.542;2022-11-15T13:18:37;98556.16;;;15.03;53.97
9893;BME280;4985;49.092;8.542;2022-11-15T13:21:19;98551.69;;;15.04;53.97
9893;BME280;4985;49.092;8.542;2022-11-15T13:24:09;98538.44;;;15.04;53.98
9893;BME280;4985;49.092;8.542;2022-11-15T13:26:38;98532.31;;;15.03;53.99
9893;BME280;4985;49.092;8.542;2022-11-15T13:29:15;98525.97;;;15.04;53.98
9893;BME280;4985;49.092;8.542;2022-11-15T13:31:43;98525.97;;;15.04;53.99
9893;BME280;4985;49.092;8.542;2022-11-15T13:34:31;98514.34;;;15.05;53.97
9893;BME280;4985;49.092;8.542;2022-11-15T13:37:01;98510.09;;;15.04;53.97
9893;BME280;4985;49.092;8.542;2022-11-15T13:39:30;98512.53;;;15.06;54.15
9893;BME280;4985;49.092;8.542;2022-11-15T13:41:58;98511.31;;;15.08;54.45
9893;BME280;4985;49.092;8.542;2022-11-15T13:44:26;98500.28;;;15.11;54.59